createdAt,value
2022-11-29T00:00:07.519Z,91.16
2022-11-29T00:00:49.722Z,91.00
2022-11-29T00:01:25.589Z,91.38
2022-11-29T00:01:57.755Z,91.44
2022-11-29T00:02:29.812Z,91.13
2022-11-29T00:03:02.096Z,91.14
2022-11-29T00:03:34.583Z,91.01
2022-11-29T00:04:06.968Z,90.50
2022-11-29T00:04:38.896Z,90.27
2022-11-29T00:05:10.887Z,90.45
2022-11-29T00:05:42.754Z,90.25
2022-11-29T00:06:17.520Z,90.79
2022-11-29T00:06:49.651Z,91.00
2022-11-29T00:07:21.561Z,90.63
2022-11-29T00:07:53.563Z,90.19
2022-11-29T00:08:25.490Z,90.00
2022-11-29T00:09:03.570Z,90.77
2022-11-29T00:09:35.403Z,91.17
2022-11-29T00:10:08.110Z,90.71
2022-11-29T00:10:40.009Z,90.60
2022-11-29T00:11:36.335Z,90.31
2022-11-29T00:12:12.201Z,89.99
2022-11-29T00:12:46.341Z,89.75
2022-11-29T00:13:18.179Z,90.12
2022-11-29T00:13:50.148Z,89.87
2022-11-29T00:14:22.970Z,89.46
2022-11-29T00:14:54.914Z,89.23
2022-11-29T00:15:26.740Z,90.15
2022-11-29T00:16:05.717Z,90.80
2022-11-29T00:16:37.606Z,90.67
2022-11-29T00:17:09.863Z,90.34
2022-11-29T00:17:41.811Z,90.12
2022-11-29T00:18:13.648Z,89.97
2022-11-29T00:18:45.506Z,89.97
2022-11-29T00:19:17.368Z,89.96
2022-11-29T00:19:49.196Z,90.04
2022-11-29T00:20:21.032Z,89.67
2022-11-29T00:20:52.853Z,89.97
2022-11-29T00:21:24.708Z,89.98
2022-11-29T00:21:56.713Z,89.44
2022-11-29T00:22:29.376Z,89.81
2022-11-29T00:23:01.721Z,90.04
2022-11-29T00:23:34.097Z,89.86
2022-11-29T00:24:06.349Z,89.59
2022-11-29T00:24:38.190Z,89.53
2022-11-29T00:25:10.048Z,89.13
2022-11-29T00:25:41.903Z,89.88
2022-11-29T00:26:13.737Z,90.17
2022-11-29T00:26:45.818Z,90.21
2022-11-29T00:27:18.419Z,90.41
2022-11-29T00:27:51.557Z,90.54
2022-11-29T00:28:23.465Z,90.19
2022-11-29T00:28:55.316Z,89.99
2022-11-29T00:29:27.758Z,89.97
2022-11-29T00:29:59.793Z,89.72
2022-11-29T00:30:31.775Z,89.72
2022-11-29T00:31:15.570Z,89.60
2022-11-29T00:31:47.519Z,89.34
2022-11-29T00:32:19.384Z,89.39
2022-11-29T00:32:51.526Z,89.37
2022-11-29T00:33:23.401Z,89.56
2022-11-29T00:33:57.071Z,90.01
2022-11-29T00:34:28.971Z,89.90
2022-11-29T00:35:05.227Z,89.61
2022-11-29T00:35:40.071Z,89.70
2022-11-29T00:36:12.771Z,90.14
2022-11-29T00:36:44.665Z,90.16
2022-11-29T00:37:16.495Z,90.18
2022-11-29T00:37:48.391Z,90.41
2022-11-29T00:38:20.552Z,90.27
2022-11-29T00:38:52.459Z,90.19
2022-11-29T00:39:24.448Z,89.99
2022-11-29T00:39:56.330Z,89.72
2022-11-29T00:40:28.183Z,89.74
2022-11-29T00:41:00.033Z,89.97
2022-11-29T00:41:32.606Z,89.77
2022-11-29T00:42:05.372Z,89.31
2022-11-29T00:42:37.256Z,89.69
2022-11-29T00:43:09.086Z,90.03
2022-11-29T00:43:41.681Z,89.75
2022-11-29T00:44:19.644Z,89.50
2022-11-29T00:44:52.159Z,89.54
2022-11-29T00:45:24.324Z,89.36
2022-11-29T00:45:56.357Z,90.01
2022-11-29T00:46:28.274Z,90.19
2022-11-29T00:47:00.250Z,90.02
2022-11-29T00:47:32.161Z,90.00
2022-11-29T00:48:04.246Z,89.45
2022-11-29T00:48:36.398Z,89.58
2022-11-29T00:49:08.615Z,89.46
2022-11-29T00:49:40.486Z,89.58
2022-11-29T00:50:12.493Z,89.41
2022-11-29T00:50:44.326Z,90.20
2022-11-29T00:51:16.191Z,90.70
2022-11-29T00:51:48.059Z,90.01
2022-11-29T00:52:19.920Z,89.72
2022-11-29T00:52:51.798Z,89.40
2022-11-29T00:53:23.757Z,88.95
2022-11-29T00:53:55.658Z,89.36
2022-11-29T00:54:27.958Z,89.77
2022-11-29T00:54:59.890Z,90.25
2022-11-29T00:55:31.761Z,90.03
2022-11-29T00:56:04.602Z,90.09
2022-11-29T00:56:36.583Z,90.30
2022-11-29T00:57:08.437Z,90.49
2022-11-29T00:57:40.385Z,90.96
2022-11-29T00:58:12.216Z,91.43
2022-11-29T00:58:44.170Z,91.27
2022-11-29T00:59:16.034Z,91.22
2022-11-29T00:59:48.165Z,91.23
2022-11-29T01:00:20.378Z,91.31
2022-11-29T01:00:53.570Z,91.32
2022-11-29T01:01:25.710Z,91.22
2022-11-29T01:01:57.721Z,90.95
2022-11-29T01:02:29.637Z,90.92
2022-11-29T01:03:02.104Z,90.74
2022-11-29T01:03:34.015Z,90.61
2022-11-29T01:04:05.951Z,90.80
2022-11-29T01:04:37.921Z,90.96
2022-11-29T01:05:10.152Z,90.64
2022-11-29T01:05:42.983Z,90.53
2022-11-29T01:06:17.335Z,90.04
2022-11-29T01:06:53.326Z,90.10
2022-11-29T01:07:25.328Z,91.04
2022-11-29T01:07:57.325Z,91.82
2022-11-29T01:08:29.267Z,91.81
2022-11-29T01:09:01.217Z,91.46
2022-11-29T01:09:33.064Z,91.51
2022-11-29T01:10:05.559Z,91.20
2022-11-29T01:10:38.112Z,90.97
2022-11-29T01:11:14.357Z,91.19
2022-11-29T01:11:46.301Z,91.57
2022-11-29T01:12:18.135Z,91.41
2022-11-29T01:12:50.089Z,91.73
2022-11-29T01:13:21.904Z,91.76
2022-11-29T01:13:57.308Z,91.50
2022-11-29T01:14:29.140Z,91.44
2022-11-29T01:15:00.998Z,91.56
2022-11-29T01:15:33.068Z,90.98
2022-11-29T01:16:06.458Z,91.03
2022-11-29T01:16:38.332Z,91.21
2022-11-29T01:17:10.519Z,91.26
2022-11-29T01:17:42.769Z,91.65
2022-11-29T01:18:15.527Z,91.76
2022-11-29T01:18:47.721Z,92.25
2022-11-29T01:19:19.607Z,92.46
2022-11-29T01:19:51.467Z,92.62
2022-11-29T01:20:23.336Z,92.50
2022-11-29T01:21:01.714Z,92.52
2022-11-29T01:21:34.093Z,92.40
2022-11-29T01:22:05.968Z,92.36
2022-11-29T01:22:39.481Z,92.50
2022-11-29T01:23:11.426Z,92.28
2022-11-29T01:23:44.496Z,92.08
2022-11-29T01:24:16.372Z,92.19
2022-11-29T01:24:48.444Z,92.37
2022-11-29T01:25:20.815Z,92.46
2022-11-29T01:26:01.598Z,92.57
2022-11-29T01:26:33.859Z,92.64
2022-11-29T01:27:05.765Z,92.64
2022-11-29T01:27:37.839Z,93.06
2022-11-29T01:28:09.662Z,92.83
2022-11-29T01:28:42.460Z,93.13
2022-11-29T01:29:14.395Z,93.37
2022-11-29T01:29:46.231Z,93.26
2022-11-29T01:30:18.120Z,92.77
2022-11-29T01:30:49.943Z,92.40
2022-11-29T01:31:24.440Z,92.26
2022-11-29T01:31:56.588Z,92.22
2022-11-29T01:32:28.517Z,91.96
2022-11-29T01:33:00.389Z,91.84
2022-11-29T01:33:32.390Z,92.15
2022-11-29T01:34:06.745Z,92.39
2022-11-29T01:34:39.262Z,92.76
2022-11-29T01:35:11.267Z,92.97
2022-11-29T01:35:54.827Z,93.14
2022-11-29T01:36:27.983Z,93.29
2022-11-29T01:37:00.412Z,93.11
2022-11-29T01:37:32.507Z,93.25
2022-11-29T01:38:04.401Z,93.51
2022-11-29T01:38:37.113Z,93.60
2022-11-29T01:39:09.023Z,93.65
2022-11-29T01:39:40.840Z,93.60
2022-11-29T01:40:13.907Z,93.72
2022-11-29T01:40:56.516Z,93.62
2022-11-29T01:41:31.866Z,93.71
2022-11-29T01:42:04.270Z,93.78
2022-11-29T01:42:36.124Z,93.95
2022-11-29T01:43:17.289Z,93.71
2022-11-29T01:44:00.338Z,93.29
2022-11-29T01:44:32.103Z,93.03
2022-11-29T01:45:25.384Z,92.81
2022-11-29T01:45:58.176Z,92.71
2022-11-29T01:46:38.462Z,92.89
2022-11-29T01:47:11.899Z,93.06
2022-11-29T01:47:46.296Z,93.19
2022-11-29T01:48:19.942Z,93.10
2022-11-29T01:48:56.910Z,92.69
2022-11-29T01:49:34.018Z,92.49
2022-11-29T01:50:08.141Z,92.52
2022-11-29T01:50:42.544Z,92.58
2022-11-29T01:51:14.931Z,92.51
2022-11-29T01:51:51.465Z,92.12
2022-11-29T01:52:28.460Z,92.20
2022-11-29T01:53:00.847Z,92.03
2022-11-29T01:53:33.173Z,92.16
2022-11-29T01:54:05.796Z,92.42
2022-11-29T01:54:41.721Z,92.91
2022-11-29T01:55:14.165Z,93.14
2022-11-29T01:55:53.597Z,93.26
2022-11-29T01:56:26.388Z,93.20
2022-11-29T01:56:59.416Z,92.67
2022-11-29T01:57:33.972Z,92.68
2022-11-29T01:58:07.720Z,92.67
2022-11-29T01:58:39.694Z,92.48
2022-11-29T01:59:19.265Z,92.41
2022-11-29T01:59:56.853Z,92.14
2022-11-29T02:00:30.037Z,92.10
2022-11-29T02:01:02.572Z,92.57
2022-11-29T02:01:35.891Z,92.47
2022-11-29T02:02:20.520Z,92.31
2022-11-29T02:02:58.460Z,91.85
2022-11-29T02:03:30.715Z,92.30
2022-11-29T02:04:03.325Z,92.40
2022-11-29T02:04:36.438Z,92.60
2022-11-29T02:05:09.215Z,92.41
2022-11-29T02:05:45.020Z,91.90
2022-11-29T02:06:16.895Z,91.61
2022-11-29T02:06:48.771Z,91.24
2022-11-29T02:07:20.684Z,91.39
2022-11-29T02:07:55.896Z,91.22
2022-11-29T02:08:39.214Z,91.37
2022-11-29T02:09:23.084Z,91.60
2022-11-29T02:09:55.054Z,91.84
2022-11-29T02:11:04.485Z,92.37
2022-11-29T02:11:57.580Z,92.99
2022-11-29T02:12:29.375Z,93.06
2022-11-29T02:13:11.534Z,92.39
2022-11-29T02:14:15.512Z,92.09
2022-11-29T02:14:56.935Z,92.00
2022-11-29T02:15:57.451Z,91.90
2022-11-29T02:16:52.226Z,92.23
2022-11-29T02:18:02.487Z,92.57
2022-11-29T02:19:04.003Z,91.90
2022-11-29T02:20:06.414Z,91.70
2022-11-29T02:20:47.557Z,91.76
2022-11-29T02:21:25.595Z,92.33
2022-11-29T02:22:09.235Z,92.51
2022-11-29T02:22:57.205Z,92.47
2022-11-29T02:24:00.130Z,92.41
2022-11-29T02:24:44.094Z,92.77
2022-11-29T02:26:00.634Z,92.93
2022-11-29T02:27:10.656Z,92.80
2022-11-29T02:27:42.448Z,92.37
2022-11-29T02:28:47.929Z,91.90
2022-11-29T02:29:44.111Z,91.75
2022-11-29T02:30:39.382Z,91.28
2022-11-29T02:31:14.126Z,91.09
2022-11-29T02:32:04.292Z,90.92
2022-11-29T02:32:51.118Z,90.86
2022-11-29T02:33:52.953Z,91.06
2022-11-29T02:34:51.317Z,90.80
2022-11-29T02:35:41.766Z,90.42
2022-11-29T02:36:58.442Z,90.66
2022-11-29T02:37:55.424Z,91.01
2022-11-29T02:38:51.991Z,91.76
2022-11-29T02:39:35.587Z,91.66
2022-11-29T02:40:23.033Z,91.26
2022-11-29T02:41:17.984Z,90.89
2022-11-29T02:42:01.689Z,90.54
2022-11-29T02:42:56.412Z,90.48
2022-11-29T02:43:43.867Z,90.70
2022-11-29T02:44:44.921Z,90.79
2022-11-29T02:45:22.566Z,90.55
2022-11-29T02:46:12.878Z,91.00
2022-11-29T02:46:47.703Z,91.55
2022-11-29T02:47:46.275Z,91.37
2022-11-29T02:49:03.413Z,90.98
2022-11-29T02:49:52.793Z,91.57
2022-11-29T02:50:41.467Z,91.21
2022-11-29T02:51:24.690Z,90.92
2022-11-29T02:52:05.037Z,90.95
2022-11-29T02:52:46.526Z,90.82
2022-11-29T02:53:47.720Z,91.23
2022-11-29T02:54:53.077Z,91.24
2022-11-29T02:55:47.613Z,91.61
2022-11-29T02:56:25.274Z,91.36
2022-11-29T02:57:09.173Z,91.10
2022-11-29T02:57:54.363Z,90.81
2022-11-29T02:58:51.348Z,90.83
2022-11-29T02:59:46.256Z,90.57
2022-11-29T03:00:23.373Z,90.54
2022-11-29T03:01:07.062Z,90.84
2022-11-29T03:02:07.084Z,90.61
2022-11-29T03:03:08.767Z,90.01
2022-11-29T03:03:53.130Z,91.38
2022-11-29T03:04:34.669Z,91.49
2022-11-29T03:05:25.073Z,91.34
2022-11-29T03:06:22.946Z,90.74
2022-11-29T03:07:22.513Z,90.45
2022-11-29T03:08:31.794Z,90.37
2022-11-29T03:09:33.155Z,90.24
2022-11-29T03:10:20.873Z,89.79
2022-11-29T03:10:57.540Z,89.35
2022-11-29T03:11:45.165Z,89.36
2022-11-29T03:12:31.797Z,88.91
2022-11-29T03:13:10.499Z,88.51
2022-11-29T03:14:10.000Z,88.78
2022-11-29T03:14:59.779Z,88.87
2022-11-29T03:15:38.789Z,88.91
2022-11-29T03:16:22.728Z,88.55
2022-11-29T03:17:07.417Z,88.40
2022-11-29T03:18:00.965Z,88.09
2022-11-29T03:18:56.076Z,88.70
2022-11-29T03:19:55.246Z,88.67
2022-11-29T03:20:56.432Z,88.83
2022-11-29T03:21:50.160Z,89.07
2022-11-29T03:22:40.349Z,88.85
2022-11-29T03:23:33.679Z,89.05
2022-11-29T03:24:14.760Z,89.25
2022-11-29T03:24:55.612Z,89.40
2022-11-29T03:25:40.056Z,89.58
2022-11-29T03:26:15.524Z,90.37
2022-11-29T03:27:01.551Z,90.02
2022-11-29T03:27:43.874Z,89.69
2022-11-29T03:28:21.031Z,89.61
2022-11-29T03:29:09.602Z,89.55
2022-11-29T03:29:58.631Z,89.67
2022-11-29T03:30:34.526Z,89.85
2022-11-29T03:31:18.377Z,89.82
2022-11-29T03:32:02.541Z,89.74
2022-11-29T03:32:45.691Z,89.52
2022-11-29T03:33:43.278Z,88.97
2022-11-29T03:34:26.953Z,88.80
2022-11-29T03:35:01.411Z,89.19
2022-11-29T03:35:39.562Z,89.00
2022-11-29T03:36:28.944Z,88.61
2022-11-29T03:37:12.568Z,88.15
2022-11-29T03:38:19.232Z,88.25
2022-11-29T03:38:55.062Z,88.70
2022-11-29T03:39:45.079Z,88.83
2022-11-29T03:40:25.569Z,88.96
2022-11-29T03:41:05.011Z,88.67
2022-11-29T03:41:57.209Z,88.72
2022-11-29T03:42:36.227Z,89.14
2022-11-29T03:43:17.070Z,88.99
2022-11-29T03:43:57.772Z,89.85
2022-11-29T03:44:39.840Z,89.56
2022-11-29T03:45:24.953Z,89.06
2022-11-29T03:46:03.485Z,88.71
2022-11-29T03:46:44.000Z,88.85
2022-11-29T03:47:23.743Z,88.96
2022-11-29T03:48:07.384Z,88.74
2022-11-29T03:48:59.497Z,88.93
2022-11-29T03:49:37.781Z,88.66
2022-11-29T03:50:25.995Z,88.44
2022-11-29T03:51:12.503Z,88.53
2022-11-29T03:51:56.385Z,88.44
2022-11-29T03:52:38.552Z,87.95
2022-11-29T03:53:36.011Z,88.38
2022-11-29T03:54:16.488Z,88.61
2022-11-29T03:55:14.482Z,88.47
2022-11-29T03:55:48.975Z,88.10
2022-11-29T03:56:32.123Z,88.21
2022-11-29T03:57:04.316Z,88.38
2022-11-29T03:58:17.540Z,88.11
2022-11-29T03:59:10.586Z,87.77
2022-11-29T03:59:51.030Z,88.23
2022-11-29T04:00:23.763Z,88.64
2022-11-29T04:01:21.546Z,89.20
2022-11-29T04:02:08.706Z,89.57
2022-11-29T04:03:01.073Z,89.11
2022-11-29T04:03:50.926Z,88.65
2022-11-29T04:04:40.949Z,88.75
2022-11-29T04:05:21.985Z,88.85
2022-11-29T04:06:16.302Z,89.01
2022-11-29T04:07:30.061Z,89.41
2022-11-29T04:08:39.512Z,89.24
2022-11-29T04:09:40.263Z,89.11
2022-11-29T04:10:29.991Z,88.98
2022-11-29T04:11:31.397Z,89.29
2022-11-29T04:12:22.261Z,89.53
2022-11-29T04:13:27.628Z,89.55
2022-11-29T04:14:27.093Z,89.49
2022-11-29T04:15:16.622Z,89.73
2022-11-29T04:16:07.610Z,89.51
2022-11-29T04:17:03.526Z,89.49
2022-11-29T04:17:45.107Z,88.92
2022-11-29T04:18:29.080Z,88.82
2022-11-29T04:19:31.988Z,89.11
2022-11-29T04:20:21.862Z,89.12
2022-11-29T04:21:08.539Z,89.20
2022-11-29T04:22:19.390Z,89.11
2022-11-29T04:23:25.650Z,88.88
2022-11-29T04:24:20.815Z,88.87
2022-11-29T04:25:07.713Z,89.49
2022-11-29T04:25:54.775Z,89.95
2022-11-29T04:26:40.155Z,89.98
2022-11-29T04:27:33.067Z,90.58
2022-11-29T04:28:47.066Z,90.45
2022-11-29T04:29:43.784Z,91.00
2022-11-29T04:30:23.705Z,90.91
2022-11-29T04:31:13.614Z,90.35
2022-11-29T04:32:10.364Z,90.24
2022-11-29T04:33:03.189Z,90.12
2022-11-29T04:34:00.374Z,90.08
2022-11-29T04:34:47.501Z,89.47
2022-11-29T04:35:43.951Z,89.91
2022-11-29T04:36:38.681Z,90.15
2022-11-29T04:37:37.891Z,89.52
2022-11-29T04:38:47.901Z,90.14
2022-11-29T04:39:48.924Z,89.71
2022-11-29T04:40:49.972Z,89.77
2022-11-29T04:41:36.610Z,90.02
2022-11-29T04:42:23.584Z,89.80
2022-11-29T04:43:27.614Z,89.75
2022-11-29T04:44:36.922Z,89.98
2022-11-29T04:45:36.457Z,89.30
2022-11-29T04:46:39.257Z,90.65
2022-11-29T04:47:19.723Z,91.70
2022-11-29T04:48:13.924Z,91.66
2022-11-29T04:48:51.675Z,91.65
2022-11-29T04:49:52.741Z,91.51
2022-11-29T04:50:40.082Z,91.22
2022-11-29T04:51:30.053Z,91.29
2022-11-29T04:52:29.602Z,91.36
2022-11-29T04:53:22.361Z,91.66
2022-11-29T04:54:15.999Z,91.21
2022-11-29T04:55:06.539Z,90.68
2022-11-29T04:56:04.307Z,90.79
2022-11-29T04:57:08.253Z,90.69
2022-11-29T04:57:45.723Z,91.08
2022-11-29T04:58:32.783Z,91.22
2022-11-29T04:59:24.812Z,90.97
2022-11-29T05:00:08.028Z,91.20
2022-11-29T05:00:51.936Z,91.05
2022-11-29T05:02:11.552Z,91.51
2022-11-29T05:02:59.690Z,91.42
2022-11-29T05:03:39.087Z,91.43
2022-11-29T05:04:16.389Z,91.38
2022-11-29T05:04:53.763Z,91.40
2022-11-29T05:05:43.201Z,91.07
2022-11-29T05:06:35.159Z,90.97
2022-11-29T05:07:18.783Z,90.51
2022-11-29T05:07:53.287Z,90.40
2022-11-29T05:08:56.709Z,94.26
2022-11-29T05:09:55.338Z,92.90
2022-11-29T05:11:01.208Z,92.17
2022-11-29T05:12:14.895Z,90.93
2022-11-29T05:13:20.578Z,90.48
2022-11-29T05:14:41.772Z,90.32
2022-11-29T05:15:41.383Z,96.77
2022-11-29T05:16:46.514Z,92.09
2022-11-29T05:17:31.582Z,90.40
2022-11-29T05:18:26.393Z,90.25
2022-11-29T05:19:22.946Z,89.02
2022-11-29T05:20:26.265Z,88.83
2022-11-29T05:21:16.827Z,88.82
2022-11-29T05:22:19.558Z,90.08
2022-11-29T05:23:29.118Z,90.44
2022-11-29T05:24:31.590Z,90.26
2022-11-29T05:25:32.401Z,93.69
2022-11-29T05:26:17.760Z,95.60
2022-11-29T05:27:28.352Z,94.20
2022-11-29T05:28:10.335Z,96.69
2022-11-29T05:29:03.823Z,93.92
2022-11-29T05:29:46.226Z,92.39
2022-11-29T05:30:21.116Z,92.04
2022-11-29T05:31:23.795Z,92.62
2022-11-29T05:32:00.207Z,91.99
2022-11-29T05:33:01.086Z,90.96
2022-11-29T05:33:45.200Z,90.56
2022-11-29T05:34:19.910Z,90.17
2022-11-29T05:35:34.716Z,90.36
2022-11-29T05:36:25.184Z,90.62
2022-11-29T05:37:15.145Z,91.49
2022-11-29T05:37:52.069Z,91.57
2022-11-29T05:38:23.855Z,91.11
2022-11-29T05:39:33.196Z,91.16
2022-11-29T05:40:36.634Z,92.49
2022-11-29T05:41:50.064Z,92.29
2022-11-29T05:42:34.307Z,92.68
2022-11-29T05:43:12.252Z,93.45
2022-11-29T05:44:21.259Z,93.24
2022-11-29T05:45:03.069Z,92.45
2022-11-29T05:45:43.530Z,92.14
2022-11-29T05:46:39.976Z,92.32
2022-11-29T05:47:24.676Z,92.35
2022-11-29T05:48:37.755Z,92.79
2022-11-29T05:49:20.984Z,92.99
2022-11-29T05:50:05.334Z,93.06
2022-11-29T05:50:52.721Z,95.86
2022-11-29T05:51:58.396Z,94.53
2022-11-29T05:52:48.781Z,99.88
2022-11-29T05:53:43.491Z,96.42
2022-11-29T05:54:36.990Z,94.92
2022-11-29T05:55:15.187Z,94.54
2022-11-29T05:56:05.777Z,93.86
2022-11-29T05:57:02.112Z,93.95
2022-11-29T05:57:55.404Z,93.95
2022-11-29T05:58:52.528Z,93.83
2022-11-29T05:59:29.053Z,94.03
2022-11-29T06:00:03.155Z,94.42
2022-11-29T06:01:00.453Z,94.27
2022-11-29T06:01:59.484Z,93.98
2022-11-29T06:03:00.934Z,94.08
2022-11-29T06:03:53.524Z,94.03
2022-11-29T06:04:40.322Z,93.60
2022-11-29T06:05:30.674Z,92.99
2022-11-29T06:06:19.653Z,92.45
2022-11-29T06:07:38.800Z,92.29
2022-11-29T06:08:25.769Z,92.15
2022-11-29T06:09:21.946Z,93.17
2022-11-29T06:10:11.703Z,92.62
2022-11-29T06:11:06.358Z,92.47
2022-11-29T06:11:52.987Z,92.18
2022-11-29T06:12:26.881Z,92.08
2022-11-29T06:13:04.283Z,91.75
2022-11-29T06:13:50.988Z,91.37
2022-11-29T06:14:26.000Z,91.62
2022-11-29T06:15:19.948Z,91.49
2022-11-29T06:16:07.001Z,91.38
2022-11-29T06:16:57.307Z,90.96
2022-11-29T06:17:48.893Z,90.56
2022-11-29T06:18:33.846Z,90.04
2022-11-29T06:19:11.948Z,89.86
2022-11-29T06:20:22.154Z,89.81
2022-11-29T06:21:13.194Z,90.19
2022-11-29T06:22:07.154Z,91.09
2022-11-29T06:22:42.123Z,90.42
2022-11-29T06:23:29.183Z,90.02
2022-11-29T06:24:36.357Z,89.71
2022-11-29T06:25:15.544Z,89.46
2022-11-29T06:26:07.271Z,88.88
2022-11-29T06:26:58.147Z,89.51
2022-11-29T06:27:49.763Z,89.99
2022-11-29T06:28:28.555Z,89.67
2022-11-29T06:29:03.802Z,89.72
2022-11-29T06:30:11.710Z,89.65
2022-11-29T06:30:49.301Z,89.88
2022-11-29T06:31:27.136Z,90.24
2022-11-29T06:32:30.507Z,91.03
2022-11-29T06:33:18.905Z,95.33
2022-11-29T06:34:15.044Z,93.33
2022-11-29T06:34:54.904Z,92.71
2022-11-29T06:35:46.410Z,92.11
2022-11-29T06:36:42.903Z,90.87
2022-11-29T06:37:31.505Z,91.34
2022-11-29T06:38:13.977Z,91.82
2022-11-29T06:38:46.049Z,91.53
2022-11-29T06:39:18.560Z,91.76
2022-11-29T06:39:50.720Z,91.53
2022-11-29T06:40:23.033Z,91.29
2022-11-29T06:41:01.540Z,92.12
2022-11-29T06:41:34.410Z,92.23
2022-11-29T06:42:06.289Z,92.26
2022-11-29T06:42:38.401Z,100.00
2022-11-29T06:43:10.495Z,96.13
2022-11-29T06:43:42.616Z,94.12
2022-11-29T06:44:14.937Z,93.65
2022-11-29T06:44:47.804Z,92.70
2022-11-29T06:45:21.830Z,92.52
2022-11-29T06:45:59.519Z,92.35
2022-11-29T06:46:48.162Z,91.08
2022-11-29T06:47:42.658Z,90.55
2022-11-29T06:48:25.680Z,90.82
2022-11-29T06:49:12.132Z,90.21
2022-11-29T06:49:49.728Z,100.00
2022-11-29T06:50:33.419Z,97.62
2022-11-29T06:51:17.410Z,100.00
2022-11-29T06:51:58.091Z,98.32
2022-11-29T06:52:54.678Z,92.09
2022-11-29T06:53:38.719Z,97.51
2022-11-29T06:54:19.066Z,98.81
2022-11-29T06:55:22.653Z,93.81
2022-11-29T06:56:32.945Z,89.65
2022-11-29T06:57:10.553Z,82.57
2022-11-29T06:57:48.352Z,81.02
2022-11-29T06:58:51.360Z,80.47
2022-11-29T07:00:16.355Z,80.92
2022-11-29T07:01:03.568Z,80.84
2022-11-29T07:01:58.422Z,80.99
2022-11-29T07:03:07.739Z,81.30
2022-11-29T07:03:42.455Z,81.77
2022-11-29T07:04:46.308Z,82.23
2022-11-29T07:05:27.701Z,81.82
2022-11-29T07:06:08.224Z,82.40
2022-11-29T07:06:40.604Z,82.45
2022-11-29T07:07:19.635Z,82.38
2022-11-29T07:07:57.707Z,82.75
2022-11-29T07:08:29.811Z,82.98
2022-11-29T07:09:11.927Z,83.26
2022-11-29T07:09:46.063Z,84.53
2022-11-29T07:10:19.407Z,84.90
2022-11-29T07:10:54.121Z,84.16
2022-11-29T07:11:26.658Z,83.63
2022-11-29T07:11:59.061Z,83.25
2022-11-29T07:12:31.254Z,83.37
2022-11-29T07:13:03.927Z,83.56
2022-11-29T07:13:36.008Z,83.71
2022-11-29T07:14:09.854Z,83.68
2022-11-29T07:14:42.302Z,83.83
2022-11-29T07:15:20.701Z,83.96
2022-11-29T07:16:11.431Z,83.72
2022-11-29T07:16:59.748Z,83.35
2022-11-29T07:17:43.871Z,83.95
2022-11-29T07:18:39.177Z,84.12
2022-11-29T07:19:35.279Z,84.09
2022-11-29T07:20:25.706Z,84.52
2022-11-29T07:21:03.219Z,84.59
2022-11-29T07:21:53.341Z,84.64
2022-11-29T07:22:39.951Z,84.30
2022-11-29T07:23:29.816Z,84.28
2022-11-29T07:24:32.358Z,84.63
2022-11-29T07:25:38.134Z,84.90
2022-11-29T07:26:29.120Z,84.63
2022-11-29T07:27:13.372Z,84.70
2022-11-29T07:27:58.606Z,84.70
2022-11-29T07:28:43.122Z,84.67
2022-11-29T07:29:37.093Z,84.64
2022-11-29T07:30:19.058Z,84.72
2022-11-29T07:30:59.249Z,85.04
2022-11-29T07:31:55.222Z,84.94
2022-11-29T07:33:00.343Z,85.41
2022-11-29T07:33:48.094Z,85.44
2022-11-29T07:34:35.412Z,86.97
2022-11-29T07:35:15.534Z,86.88
2022-11-29T07:36:05.998Z,86.67
2022-11-29T07:37:22.369Z,86.28
2022-11-29T07:38:10.149Z,85.89
2022-11-29T07:38:55.663Z,85.11
2022-11-29T07:39:36.214Z,85.00
2022-11-29T07:40:35.937Z,85.00
2022-11-29T07:41:24.295Z,84.96
2022-11-29T07:42:08.038Z,85.50
2022-11-29T07:43:23.397Z,86.01
2022-11-29T07:44:36.384Z,86.30
2022-11-29T07:45:11.236Z,87.13
2022-11-29T07:45:43.262Z,87.46
2022-11-29T07:46:15.216Z,86.96
2022-11-29T07:46:47.237Z,86.62
2022-11-29T07:47:19.226Z,86.46
2022-11-29T07:47:51.612Z,86.28
2022-11-29T07:48:23.532Z,86.30
2022-11-29T07:48:55.703Z,86.31
2022-11-29T07:49:27.531Z,86.25
2022-11-29T07:49:59.390Z,85.76
2022-11-29T07:50:31.792Z,85.42
2022-11-29T07:51:03.846Z,85.42
2022-11-29T07:51:35.792Z,85.86
2022-11-29T07:52:14.740Z,86.06
2022-11-29T07:52:47.678Z,86.72
2022-11-29T07:53:21.787Z,87.03
2022-11-29T07:53:53.971Z,87.16
2022-11-29T07:54:26.745Z,87.39
2022-11-29T07:54:58.562Z,87.42
2022-11-29T07:55:34.328Z,87.04
2022-11-29T07:56:06.349Z,86.65
2022-11-29T07:56:38.178Z,86.27
2022-11-29T07:57:10.079Z,86.18
2022-11-29T07:57:41.939Z,86.48
2022-11-29T07:58:15.780Z,86.81
2022-11-29T07:58:47.789Z,86.84
2022-11-29T07:59:20.121Z,86.96
2022-11-29T07:59:52.258Z,86.86
2022-11-29T08:00:24.229Z,86.83
2022-11-29T08:00:56.416Z,86.82
2022-11-29T08:01:28.354Z,86.83
2022-11-29T08:02:00.364Z,86.39
2022-11-29T08:02:32.957Z,86.40
2022-11-29T08:03:05.284Z,85.81
2022-11-29T08:03:37.305Z,85.85
2022-11-29T08:04:09.518Z,86.08
2022-11-29T08:04:44.289Z,85.98
2022-11-29T08:05:17.099Z,85.88
2022-11-29T08:05:49.027Z,85.95
2022-11-29T08:06:26.574Z,85.65
2022-11-29T08:07:00.124Z,85.54
2022-11-29T08:07:35.443Z,85.69
2022-11-29T08:08:07.666Z,85.72
2022-11-29T08:08:43.949Z,85.46
2022-11-29T08:09:16.335Z,84.87
2022-11-29T08:09:48.302Z,84.78
2022-11-29T08:10:20.284Z,84.61
2022-11-29T08:10:52.099Z,84.22
2022-11-29T08:11:24.948Z,84.15
2022-11-29T08:11:56.827Z,84.30
2022-11-29T08:12:28.849Z,84.27
2022-11-29T08:13:00.715Z,84.12
2022-11-29T08:13:32.550Z,84.02
2022-11-29T08:14:05.403Z,84.22
2022-11-29T08:14:37.291Z,84.33
2022-11-29T08:15:09.713Z,84.53
2022-11-29T08:15:48.753Z,84.31
2022-11-29T08:16:20.610Z,84.28
2022-11-29T08:16:52.710Z,84.09
2022-11-29T08:17:25.886Z,83.95
2022-11-29T08:17:57.975Z,83.99
2022-11-29T08:18:29.789Z,83.81
2022-11-29T08:19:01.872Z,83.23
2022-11-29T08:19:33.690Z,83.81
2022-11-29T08:20:07.260Z,84.42
2022-11-29T08:20:41.278Z,84.83
2022-11-29T08:21:18.022Z,84.85
2022-11-29T08:21:51.147Z,84.68
2022-11-29T08:22:23.279Z,84.56
2022-11-29T08:22:59.657Z,84.09
2022-11-29T08:23:31.518Z,83.84
2022-11-29T08:24:03.392Z,83.60
2022-11-29T08:24:35.322Z,83.72
2022-11-29T08:25:09.004Z,84.34
2022-11-29T08:25:41.218Z,84.98
2022-11-29T08:26:13.343Z,84.68
2022-11-29T08:26:45.177Z,84.70
2022-11-29T08:27:17.053Z,85.37
2022-11-29T08:27:49.185Z,85.63
2022-11-29T08:28:21.169Z,85.37
2022-11-29T08:28:53.110Z,85.18
2022-11-29T08:29:25.293Z,84.84
2022-11-29T08:29:57.125Z,84.71
2022-11-29T08:30:28.932Z,84.59
2022-11-29T08:31:05.685Z,84.95
2022-11-29T08:31:37.635Z,85.31
2022-11-29T08:32:09.485Z,86.08
2022-11-29T08:32:41.324Z,85.99
2022-11-29T08:33:13.486Z,86.25
2022-11-29T08:33:45.350Z,86.50
2022-11-29T08:34:17.163Z,87.10
2022-11-29T08:34:49.216Z,86.73
2022-11-29T08:35:22.918Z,86.59
2022-11-29T08:35:54.775Z,87.37
2022-11-29T08:36:26.593Z,87.55
2022-11-29T08:36:58.454Z,87.88
2022-11-29T08:37:30.335Z,87.94
2022-11-29T08:38:03.868Z,87.88
2022-11-29T08:38:37.212Z,87.62
2022-11-29T08:39:09.807Z,87.55
2022-11-29T08:39:41.711Z,87.27
2022-11-29T08:40:14.454Z,87.06
2022-11-29T08:40:46.281Z,87.05
2022-11-29T08:41:18.503Z,86.40
2022-11-29T08:41:50.440Z,86.51
2022-11-29T08:42:22.696Z,87.35
2022-11-29T08:42:58.509Z,87.20
2022-11-29T08:43:31.130Z,86.78
2022-11-29T08:44:05.156Z,86.52
2022-11-29T08:44:37.159Z,86.65
2022-11-29T08:45:09.850Z,86.50
2022-11-29T08:45:41.773Z,86.16
2022-11-29T08:46:18.245Z,86.00
2022-11-29T08:47:09.510Z,85.79
2022-11-29T08:47:42.463Z,85.37
2022-11-29T08:48:14.700Z,85.03
2022-11-29T08:48:47.663Z,85.15
2022-11-29T08:49:19.850Z,85.35
2022-11-29T08:50:03.858Z,85.60
2022-11-29T08:50:35.696Z,85.28
2022-11-29T08:51:07.611Z,85.34
2022-11-29T08:51:39.431Z,85.30
2022-11-29T08:52:31.182Z,85.10
2022-11-29T08:53:21.793Z,84.84
2022-11-29T08:53:53.704Z,84.64
2022-11-29T08:54:25.829Z,84.98
2022-11-29T08:55:02.882Z,84.73
2022-11-29T08:55:39.644Z,84.42
2022-11-29T08:57:38.608Z,85.22
2022-11-29T08:58:09.095Z,84.93
2022-11-29T08:58:41.294Z,84.35
2022-11-29T08:59:13.179Z,84.02
2022-11-29T08:59:45.322Z,83.97
2022-11-29T09:00:18.832Z,85.15
2022-11-29T09:00:50.672Z,86.13
2022-11-29T09:01:22.683Z,86.52